Time;durP1;ratioP1;P1;durP2;ratioP2;P2;SDS_P1;SDS_P2;PMS_P1;PMS_P2;Temp;Humidity;BMP_temperature;BMP_pressure;BME280_temperature;BME280_humidity;BME280_pressure;Samples;Min_cycle;Max_cycle;Signal;HPM_P1;HPM_P2
2021/11/09 00:00:55;;;;;;;13.43;2.90;;;6.80;99.90;;;;;;5037464;28;20025;-63
2021/11/09 00:03:21;;;;;;;18.50;4.05;;;6.90;99.90;;;;;;5038256;28;20104;-62
2021/11/09 00:05:53;;;;;;;20.00;3.30;;;6.80;99.90;;;;;;5036439;28;20462;-62
2021/11/09 00:08:23;;;;;;;12.40;3.03;;;6.80;99.90;;;;;;5035354;28;20037;-64
2021/11/09 00:10:49;;;;;;;17.20;3.45;;;6.80;99.90;;;;;;5037084;28;20566;-62
2021/11/09 00:13:15;;;;;;;16.00;2.97;;;6.70;99.90;;;;;;5034970;28;20041;-64
2021/11/09 00:15:41;;;;;;;14.70;3.63;;;6.80;99.90;;;;;;5038807;28;20036;-62
2021/11/09 00:18:07;;;;;;;11.57;3.63;;;6.80;99.90;;;;;;5031276;28;20752;-65
2021/11/09 00:20:35;;;;;;;13.85;3.10;;;6.70;99.90;;;;;;5037682;28;20025;-63
2021/11/09 00:23:02;;;;;;;19.55;3.40;;;6.80;99.90;;;;;;5036175;28;20037;-61
2021/11/09 00:25:28;;;;;;;15.23;4.22;;;6.70;99.90;;;;;;5037250;28;20044;-62
2021/11/09 00:27:54;;;;;;;13.68;3.38;;;6.70;99.90;;;;;;5037382;28;20082;-63
2021/11/09 00:30:22;;;;;;;15.23;4.07;;;6.70;99.90;;;;;;5036162;28;20033;-65
2021/11/09 00:32:48;;;;;;;14.43;4.85;;;6.70;99.90;;;;;;5037788;28;20037;-63
2021/11/09 00:35:18;;;;;;;14.88;2.67;;;6.70;99.90;;;;;;5034777;28;20037;-64
2021/11/09 00:37:45;;;;;;;;;;;6.60;99.90;;;;;;5038005;28;20059;-62
2021/11/09 00:40:12;;;;;;;14.48;3.17;;;6.60;99.90;;;;;;5035253;28;19924;-65
2021/11/09 00:42:38;;;;;;;15.57;3.92;;;6.60;99.90;;;;;;5021766;28;20401;-63
2021/11/09 00:45:08;;;;;;;20.15;4.38;;;6.60;99.90;;;;;;5034627;28;20041;-62
2021/11/09 00:47:34;;;;;;;26.77;4.43;;;6.60;99.90;;;;;;5030898;28;20034;-62
2021/11/09 00:50:00;;;;;;;11.65;3.25;;;6.70;99.90;;;;;;5033993;28;20033;-63
2021/11/09 00:52:25;;;;;;;17.25;3.90;;;6.70;99.90;;;;;;5035553;28;20474;-62
2021/11/09 00:54:51;;;;;;;17.95;5.05;;;6.60;99.90;;;;;;5037203;28;20056;-61
2021/11/09 00:57:18;;;;;;;16.48;3.50;;;6.60;99.90;;;;;;5036391;28;20048;-61
2021/11/09 00:59:44;;;;;;;13.13;3.30;;;6.60;99.90;;;;;;5038806;28;20130;-63
2021/11/09 01:02:09;;;;;;;21.10;3.97;;;6.60;99.90;;;;;;5038405;28;20540;-62
2021/11/09 01:04:35;;;;;;;27.92;4.13;;;6.60;99.90;;;;;;5041954;28;20036;-62
2021/11/09 01:07:01;;;;;;;15.18;3.78;;;6.60;99.90;;;;;;5038461;28;20193;-61
2021/11/09 01:09:27;;;;;;;22.52;3.80;;;6.50;99.90;;;;;;5038547;28;20038;-65
2021/11/09 01:11:53;;;;;;;18.67;3.75;;;6.50;99.90;;;;;;5041307;28;20040;-62
2021/11/09 01:14:21;;;;;;;18.33;4.55;;;6.50;99.90;;;;;;5040218;28;20455;-62
2021/11/09 01:16:46;;;;;;;17.92;3.33;;;6.50;99.90;;;;;;5040228;28;20041;-62
2021/11/09 01:19:13;;;;;;;26.63;3.85;;;6.50;99.90;;;;;;5039505;28;20045;-62
2021/11/09 01:21:41;;;;;;;22.48;4.18;;;6.50;99.90;;;;;;5038628;28;20458;-62
2021/11/09 01:24:08;;;;;;;12.68;3.90;;;6.40;99.90;;;;;;5040690;28;20045;-63
2021/11/09 01:26:34;;;;;;;12.32;3.92;;;6.40;99.90;;;;;;5037144;28;20036;-61
2021/11/09 01:29:04;;;;;;;17.88;4.15;;;6.50;99.90;;;;;;5041195;28;20393;-61
2021/11/09 01:31:29;;;;;;;22.02;4.93;;;6.50;99.90;;;;;;5036845;28;20037;-65
2021/11/09 01:33:55;;;;;;;18.77;3.75;;;6.50;99.90;;;;;;5040524;28;20052;-62
2021/11/09 01:36:21;;;;;;;23.02;4.65;;;6.50;99.90;;;;;;5019646;28;20041;-62
2021/11/09 01:38:48;;;;;;;17.15;4.40;;;6.50;99.90;;;;;;5038863;28;20115;-62
2021/11/09 01:41:14;;;;;;;21.42;4.15;;;6.50;99.90;;;;;;5038985;28;20482;-61
2021/11/09 01:43:42;;;;;;;18.13;4.68;;;6.50;99.90;;;;;;5039024;28;20033;-61
2021/11/09 01:46:09;;;;;;;21.65;3.88;;;6.50;99.90;;;;;;5040474;28;20128;-64
2021/11/09 01:48:35;;;;;;;17.80;5.32;;;6.40;99.90;;;;;;5037675;28;20030;-64
2021/11/09 01:51:05;;;;;;;12.88;3.95;;;6.50;99.90;;;;;;5038166;28;20042;-63
2021/11/09 01:53:31;;;;;;;21.92;4.07;;;6.50;99.90;;;;;;5033218;28;20529;-61
2021/11/09 01:56:01;;;;;;;25.20;5.30;;;6.40;99.90;;;;;;5040862;28;20037;-62
2021/11/09 01:58:27;;;;;;;25.55;4.95;;;6.40;99.90;;;;;;5036869;28;20732;-61
2021/11/09 02:00:56;;;;;;;24.65;3.88;;;6.40;99.90;;;;;;5040085;28;20061;-62
2021/11/09 02:03:23;;;;;;;25.87;5.30;;;6.40;99.90;;;;;;5034794;28;20136;-61
2021/11/09 02:05:49;;;;;;;19.85;4.55;;;6.40;99.90;;;;;;5039339;28;20083;-62
2021/11/09 02:08:16;;;;;;;20.85;4.93;;;6.40;99.90;;;;;;5039165;28;20083;-64
2021/11/09 02:10:43;;;;;;;23.42;4.88;;;6.40;99.90;;;;;;5038678;28;20049;-62
2021/11/09 02:13:10;;;;;;;23.52;5.05;;;6.40;99.90;;;;;;5037665;28;20037;-61
2021/11/09 02:15:37;;;;;;;18.13;4.20;;;6.40;99.90;;;;;;5039767;28;20770;-64
2021/11/09 02:18:05;;;;;;;20.77;4.00;;;6.40;99.90;;;;;;5037174;28;20044;-62
2021/11/09 02:20:31;;;;;;;15.68;5.25;;;6.40;99.90;;;;;;5033431;28;20041;-62
2021/11/09 02:22:58;;;;;;;16.35;3.72;;;6.40;99.90;;;;;;5023487;28;20507;-62
2021/11/09 02:25:25;;;;;;;16.25;3.33;;;6.40;99.90;;;;;;5037106;28;20091;-61
2021/11/09 02:27:52;;;;;;;14.00;3.72;;;6.30;99.90;;;;;;5039590;28;20044;-61
2021/11/09 02:30:24;;;;;;;14.07;3.25;;;6.30;99.90;;;;;;5037195;28;20029;-64
2021/11/09 02:32:52;;;;;;;16.83;3.80;;;6.30;99.90;;;;;;5039646;28;20061;-64
2021/11/09 02:35:19;;;;;;;21.23;6.18;;;6.30;99.90;;;;;;5037364;28;20128;-61
2021/11/09 02:37:45;;;;;;;17.95;4.70;;;6.40;99.90;;;;;;5038748;28;20044;-60
2021/11/09 02:40:11;;;;;;;32.72;4.50;;;6.30;99.90;;;;;;5038005;28;20497;-68
2021/11/09 02:42:42;;;;;;;18.55;6.15;;;6.30;99.90;;;;;;5037803;28;20041;-62
2021/11/09 02:45:16;;;;;;;26.23;5.68;;;6.30;99.90;;;;;;5039031;28;20051;-62
2021/11/09 02:47:50;;;;;;;13.80;3.53;;;6.40;99.90;;;;;;5037875;28;20081;-64
2021/11/09 02:50:17;;;;;;;13.18;4.00;;;6.40;99.90;;;;;;5034888;28;20038;-62
2021/11/09 02:52:52;;;;;;;17.33;4.93;;;6.30;99.90;;;;;;5038392;28;20029;-63
2021/11/09 02:55:20;;;;;;;23.15;4.78;;;6.30;99.90;;;;;;5038080;28;20106;-61
2021/11/09 02:57:57;;;;;;;14.85;3.90;;;6.30;99.90;;;;;;5037928;28;20649;-64
2021/11/09 03:00:33;;;;;;;20.08;6.05;;;6.40;99.90;;;;;;5038733;28;20104;-62
2021/11/09 03:03:23;;;;;;;30.10;5.93;;;6.40;99.90;;;;;;5032967;28;20036;-65
2021/11/09 03:05:52;;;;;;;27.88;5.90;;;6.40;99.90;;;;;;5037989;28;20095;-62
2021/11/09 03:08:28;;;;;;;16.10;4.60;;;6.30;99.90;;;;;;5033737;28;20056;-61
2021/11/09 03:10:55;;;;;;;20.67;5.80;;;6.30;99.90;;;;;;5035986;28;20037;-61
2021/11/09 03:13:22;;;;;;;24.77;5.22;;;6.30;99.90;;;;;;5038360;28;20524;-62
2021/11/09 03:15:50;;;;;;;29.80;5.72;;;6.30;99.90;;;;;;5019073;28;20071;-62
2021/11/09 03:18:19;;;;;;;10.32;3.65;;;6.20;99.90;;;;;;5037112;28;20041;-61
2021/11/09 03:45:27;;;;;;;14.27;4.38;;;6.00;99.90;;;;;;5035015;28;20033;-61
2021/11/09 03:47:56;;;;;;;22.27;4.45;;;6.00;99.90;;;;;;5039298;28;20051;-61
2021/11/09 03:50:25;;;;;;;18.35;5.28;;;6.10;99.90;;;;;;5033986;28;20060;-63
2021/11/09 03:53:08;;;;;;;21.92;5.10;;;6.10;99.90;;;;;;5018235;28;20029;-61
2021/11/09 04:00:50;;;;;;;18.33;4.10;;;5.90;99.90;;;;;;5035314;28;20032;-61
2021/11/09 04:05:45;;;;;;;23.48;5.13;;;6.00;99.90;;;;;;5036677;28;20053;-62
2021/11/09 04:08:34;;;;;;;17.23;4.13;;;6.00;99.90;;;;;;5034834;28;20032;-63
2021/11/09 04:13:45;;;;;;;16.25;4.43;;;5.90;99.90;;;;;;5037297;28;20404;-62
2021/11/09 04:16:23;;;;;;;17.95;4.93;;;5.90;99.90;;;;;;5036975;28;20056;-63
2021/11/09 04:18:58;;;;;;;21.70;5.10;;;5.90;99.90;;;;;;5017491;28;20554;-64
2021/11/09 04:24:37;;;;;;;12.20;3.72;;;5.90;99.90;;;;;;5034031;28;20459;-63
2021/11/09 04:32:22;;;;;;;26.35;4.20;;;5.80;99.90;;;;;;5035295;28;20122;-62
2021/11/09 04:35:28;;;;;;;19.52;5.22;;;5.80;99.90;;;;;;5041705;28;20029;-63
2021/11/09 11:05:40;;;;;;;16.08;4.50;;;10.30;99.90;;;;;;6130385;22;1756571;-62
2021/11/09 11:08:06;;;;;;;19.90;4.75;;;10.40;99.90;;;;;;6184079;23;20068;-63
2021/11/09 11:10:34;;;;;;;12.82;4.10;;;10.40;99.90;;;;;;6159036;23;20021;-62
2021/11/09 11:13:23;;;;;;;19.27;4.60;;;10.40;99.90;;;;;;6152185;23;20010;-62
2021/11/09 11:16:10;;;;;;;16.40;4.28;;;10.40;99.90;;;;;;6153542;23;20092;-62
2021/11/09 11:18:39;;;;;;;12.43;4.18;;;10.40;99.90;;;;;;6150957;23;20428;-62
2021/11/09 11:21:06;;;;;;;13.05;4.68;;;10.50;99.90;;;;;;6155287;23;20313;-63
2021/11/09 11:23:34;;;;;;;11.80;3.60;;;10.60;99.90;;;;;;6149967;23;20009;-62
2021/11/09 11:26:00;;;;;;;23.27;4.40;;;10.70;99.90;;;;;;6153540;23;20009;-62
2021/11/09 11:28:28;;;;;;;21.40;4.72;;;10.70;99.90;;;;;;6153322;23;20072;-62
2021/11/09 11:30:55;;;;;;;14.93;4.78;;;10.80;99.90;;;;;;6153649;23;20495;-62
2021/11/09 11:33:21;;;;;;;17.65;5.03;;;10.70;99.90;;;;;;6152546;23;20490;-62
2021/11/09 11:35:48;;;;;;;17.58;4.75;;;10.70;99.90;;;;;;6154688;23;20009;-62
2021/11/09 11:38:16;;;;;;;16.95;4.28;;;10.70;99.90;;;;;;6154579;23;20673;-62
2021/11/09 11:40:43;;;;;;;12.45;3.58;;;10.80;99.90;;;;;;6148707;23;20108;-62
2021/11/09 11:43:09;;;;;;;16.60;3.67;;;10.80;99.90;;;;;;6151998;23;20036;-62
2021/11/09 11:45:49;;;;;;;18.02;3.80;;;10.80;99.90;;;;;;6151915;23;20055;-63
2021/11/09 11:48:15;;;;;;;15.10;3.50;;;10.90;99.90;;;;;;6150666;23;20033;-62
2021/11/09 11:50:44;;;;;;;25.13;5.00;;;10.80;99.90;;;;;;6162132;23;20029;-62
2021/11/09 11:53:11;;;;;;;15.73;4.00;;;10.80;99.90;;;;;;6149664;23;20044;-62
2021/11/09 11:55:37;;;;;;;17.33;4.40;;;10.80;99.90;;;;;;6148376;23;20022;-61
2021/11/09 11:58:08;;;;;;;20.48;4.38;;;10.80;99.90;;;;;;6152172;23;20010;-62
2021/11/09 12:00:41;;;;;;;14.80;3.65;;;10.80;99.90;;;;;;6151337;23;20383;-62
2021/11/09 12:03:18;;;;;;;19.70;4.22;;;10.80;99.90;;;;;;6146838;23;20215;-62
2021/11/09 12:05:46;;;;;;;13.55;4.30;;;10.90;99.90;;;;;;6203141;23;20013;-64
2021/11/09 12:08:14;;;;;;;15.70;3.65;;;10.80;99.90;;;;;;6203235;23;20004;-61
2021/11/09 12:10:49;;;;;;;10.43;3.03;;;10.90;99.90;;;;;;6201511;23;20012;-61
2021/11/09 12:13:21;;;;;;;15.60;4.05;;;11.00;99.90;;;;;;6200714;23;20005;-63
2021/11/09 12:15:48;;;;;;;11.30;3.47;;;11.00;99.90;;;;;;6201114;23;20024;-64
2021/11/09 12:18:32;;;;;;;17.35;4.30;;;11.10;99.90;;;;;;6202853;23;20090;-62
2021/11/09 12:21:03;;;;;;;15.02;3.80;;;11.10;99.90;;;;;;6204002;23;20347;-65
2021/11/09 12:23:33;;;;;;;20.00;3.85;;;11.20;99.90;;;;;;6204412;23;20020;-62
2021/11/09 12:25:59;;;;;;;14.00;3.88;;;11.20;99.90;;;;;;6206278;23;20016;-62
2021/11/09 12:28:36;;;;;;;12.27;3.70;;;11.20;99.90;;;;;;6203917;23;20005;-62
2021/11/09 12:31:16;;;;;;;8.82;2.88;;;11.20;99.90;;;;;;6207530;23;20088;-63
2021/11/09 12:33:50;;;;;;;15.38;3.80;;;11.20;99.90;;;;;;6203955;23;20042;-62
2021/11/09 12:36:24;;;;;;;12.90;4.03;;;11.20;99.90;;;;;;6205361;23;20467;-65
2021/11/09 12:38:56;;;;;;;14.52;3.45;;;11.20;99.90;;;;;;6203291;23;20040;-64
2021/11/09 12:41:27;;;;;;;15.40;3.70;;;11.20;99.90;;;;;;6204520;23;20580;-61
2021/11/09 12:44:03;;;;;;;11.15;2.97;;;11.20;99.90;;;;;;6206706;23;20009;-63
2021/11/09 12:46:38;;;;;;;13.60;3.30;;;11.20;99.90;;;;;;6206242;23;20423;-62
2021/11/09 12:49:14;;;;;;;14.27;3.90;;;11.20;99.90;;;;;;6207057;23;20008;-61
2021/11/09 12:51:42;;;;;;;10.65;2.88;;;11.30;99.90;;;;;;6206257;23;20016;-62
2021/11/09 12:54:20;;;;;;;16.25;4.07;;;11.40;99.90;;;;;;6207218;23;20009;-62
2021/11/09 12:56:57;;;;;;;15.23;3.13;;;11.40;99.90;;;;;;6207137;23;20058;-63
2021/11/09 12:59:31;;;;;;;15.55;2.80;;;11.50;99.90;;;;;;6206107;23;20019;-62
2021/11/09 13:04:32;;;;;;;13.48;3.33;;;11.50;99.90;;;;;;6206478;23;20030;-61
2021/11/09 13:07:06;;;;;;;20.58;3.40;;;11.50;99.90;;;;;;6205911;23;20473;-62
2021/11/09 13:09:49;;;;;;;16.55;3.22;;;11.50;99.90;;;;;;6203637;23;20458;-62
2021/11/09 13:12:16;;;;;;;13.25;2.97;;;11.60;99.90;;;;;;6205927;23;20108;-62
2021/11/09 13:14:45;;;;;;;17.13;4.13;;;11.70;99.90;;;;;;6206401;23;20116;-62
2021/11/09 13:17:13;;;;;;;10.70;2.90;;;11.70;99.90;;;;;;6206820;23;20009;-62
2021/11/09 13:19:42;;;;;;;16.27;3.35;;;11.70;99.90;;;;;;6206110;23;20028;-63
2021/11/09 13:22:12;;;;;;;10.85;3.13;;;11.70;99.90;;;;;;6207021;23;20029;-61
2021/11/09 13:24:53;;;;;;;12.00;4.07;;;11.80;99.90;;;;;;6205770;23;20087;-61
2021/11/09 13:27:19;;;;;;;15.75;4.07;;;11.80;99.90;;;;;;6206082;23;20012;-62
2021/11/09 13:29:48;;;;;;;14.80;3.58;;;11.90;99.90;;;;;;6206313;23;20508;-61
2021/11/09 13:32:15;;;;;;;10.45;3.30;;;11.80;99.90;;;;;;6205752;23;20074;-63
2021/11/09 13:34:42;;;;;;;14.63;3.50;;;11.80;99.90;;;;;;6206627;23;20005;-62
2021/11/09 13:37:09;;;;;;;18.90;3.60;;;11.80;99.90;;;;;;6204807;23;20013;-61
2021/11/09 13:39:34;;;;;;;10.95;3.10;;;11.80;99.90;;;;;;6205543;23;20015;-61
2021/11/09 13:42:00;;;;;;;13.10;3.65;;;11.80;99.90;;;;;;6206623;23;20339;-61
2021/11/09 13:44:32;;;;;;;15.40;4.10;;;11.80;99.90;;;;;;6205847;23;20086;-62
2021/11/09 13:46:57;;;;;;;14.88;3.58;;;11.80;99.90;;;;;;6207298;23;20504;-62
2021/11/09 13:49:25;;;;;;;18.63;4.75;;;11.80;99.90;;;;;;6205266;23;20013;-62
2021/11/09 13:51:58;;;;;;;12.70;3.95;;;11.70;99.90;;;;;;6206454;23;20363;-62
2021/11/09 13:54:34;;;;;;;16.38;3.85;;;11.70;99.90;;;;;;6203885;23;20705;-62
2021/11/09 13:57:01;;;;;;;17.38;4.85;;;11.70;99.90;;;;;;6206291;23;20009;-63
2021/11/09 13:59:31;;;;;;;11.45;2.85;;;11.70;99.90;;;;;;6204703;23;20023;-62
2021/11/09 14:02:02;;;;;;;14.15;4.05;;;11.70;99.90;;;;;;6205373;23;20466;-61
2021/11/09 14:07:37;;;;;;;11.68;3.45;;;11.70;99.90;;;;;;6209053;23;20445;-61
2021/11/09 14:13:33;;;;;;;13.10;3.75;;;11.70;99.90;;;;;;6205625;23;20032;-62
2021/11/09 14:18:50;;;;;;;14.77;2.70;;;11.70;99.90;;;;;;6204674;23;20032;-62
2021/11/09 14:21:16;;;;;;;13.77;3.75;;;11.70;99.90;;;;;;6205770;23;20012;-63
2021/11/09 14:23:44;;;;;;;10.13;2.80;;;11.60;99.90;;;;;;6175420;23;20086;-61
2021/11/09 14:26:15;;;;;;;12.13;4.07;;;11.60;99.90;;;;;;6175853;23;20001;-62
2021/11/09 14:28:41;;;;;;;17.30;3.75;;;11.60;99.90;;;;;;6204468;23;20439;-63
2021/11/09 14:31:12;;;;;;;16.42;3.22;;;11.60;99.90;;;;;;6203449;23;20012;-61
2021/11/09 14:33:38;;;;;;;13.60;4.10;;;11.70;99.90;;;;;;6206963;22;20331;-62
2021/11/09 14:36:24;;;;;;;22.70;3.70;;;11.60;99.90;;;;;;6231510;23;20012;-62
2021/11/09 14:38:53;;;;;;;16.80;4.50;;;11.60;99.90;;;;;;6230628;22;20012;-62
2021/11/09 14:41:25;;;;;;;42.60;4.60;;;11.70;99.90;;;;;;6233417;23;20411;-62
2021/11/09 14:44:02;;;;;;;11.30;3.45;;;11.60;99.90;;;;;;6234429;23;20008;-61
2021/11/09 14:46:37;;;;;;;10.77;3.30;;;11.60;99.90;;;;;;6207301;23;20438;-62
2021/11/09 14:49:11;;;;;;;16.92;3.90;;;11.60;99.90;;;;;;6233685;22;20087;-62
2021/11/09 14:51:37;;;;;;;16.55;4.13;;;11.50;99.90;;;;;;6233972;22;20020;-61
2021/11/09 14:54:15;;;;;;;20.30;5.65;;;11.50;99.90;;;;;;6235155;22;20338;-62
2021/11/09 14:56:42;;;;;;;23.63;5.00;;;11.50;99.90;;;;;;6234682;22;20008;-62
2021/11/09 14:59:15;;;;;;;20.27;6.00;;;11.50;99.90;;;;;;6234271;22;20033;-61
2021/11/09 15:04:44;;;;;;;14.07;4.28;;;11.50;99.90;;;;;;6234478;22;20020;-62
2021/11/09 15:10:27;;;;;;;15.50;4.03;;;11.40;99.90;;;;;;6183755;22;20074;-61
2021/11/09 15:26:31;;;;;;;19.48;4.32;;;11.30;99.90;;;;;;6235389;22;20058;-62
2021/11/09 15:29:06;;;;;;;15.38;3.70;;;11.30;99.90;;;;;;6236180;22;20730;-61
2021/11/09 15:31:35;;;;;;;17.98;4.07;;;11.30;99.90;;;;;;6235193;22;20028;-61
2021/11/09 15:39:30;;;;;;;16.05;3.00;;;11.20;99.90;;;;;;6189922;22;20012;-62
2021/11/09 15:41:58;;;;;;;23.45;4.18;;;11.20;99.90;;;;;;6238554;22;20528;-62
2021/11/09 15:44:25;;;;;;;12.45;3.83;;;11.20;99.90;;;;;;6236309;22;20016;-62
2021/11/09 15:46:55;;;;;;;17.77;3.42;;;11.20;99.90;;;;;;6237301;23;20303;-62
2021/11/09 15:49:26;;;;;;;20.58;4.00;;;11.20;99.90;;;;;;6234906;22;20008;-62
2021/11/09 15:51:52;;;;;;;11.05;3.78;;;11.20;99.90;;;;;;6232131;23;20335;-62
2021/11/09 15:54:18;;;;;;;15.30;3.92;;;11.10;99.90;;;;;;6236605;22;20354;-63
2021/11/09 15:56:44;;;;;;;19.20;4.40;;;11.20;99.90;;;;;;6236234;23;20012;-62
2021/11/09 15:59:10;;;;;;;18.35;3.75;;;11.10;99.90;;;;;;6234954;22;20008;-62
2021/11/09 16:01:39;;;;;;;15.15;3.40;;;11.10;99.90;;;;;;6232178;22;20014;-61
2021/11/09 16:04:06;;;;;;;14.48;3.80;;;11.00;99.90;;;;;;6235533;22;20038;-62
2021/11/09 16:06:32;;;;;;;20.00;4.50;;;11.10;99.90;;;;;;6235185;22;20012;-61
2021/11/09 16:08:58;;;;;;;13.95;3.35;;;11.10;99.90;;;;;;6235751;22;20042;-63
2021/11/09 16:11:30;;;;;;;13.73;4.05;;;11.10;99.90;;;;;;6234548;22;20085;-62
2021/11/09 16:13:55;;;;;;;15.27;3.92;;;11.00;99.90;;;;;;6234147;23;20012;-62
2021/11/09 16:16:21;;;;;;;16.08;3.33;;;11.00;99.90;;;;;;6235124;22;20000;-61
2021/11/09 16:18:47;;;;;;;21.65;4.78;;;11.00;99.90;;;;;;6234204;22;20312;-61
2021/11/09 16:21:12;;;;;;;16.00;3.70;;;11.00;99.90;;;;;;6233727;22;20019;-61
2021/11/09 16:23:38;;;;;;;18.00;4.18;;;11.00;99.90;;;;;;6235372;22;20050;-62
2021/11/09 16:26:04;;;;;;;12.20;3.33;;;11.00;99.90;;;;;;6235261;23;20008;-62
2021/11/09 16:28:30;;;;;;;19.67;4.75;;;11.00;99.90;;;;;;6236143;22;20016;-62
2021/11/09 16:30:55;;;;;;;15.55;4.20;;;10.90;99.90;;;;;;6237251;22;20429;-64
2021/11/09 16:33:29;;;;;;;17.10;4.03;;;10.90;99.90;;;;;;6235624;22;20343;-62
2021/11/09 16:36:10;;;;;;;14.25;3.65;;;11.00;99.90;;;;;;6237162;22;20015;-63
2021/11/09 16:38:41;;;;;;;17.42;3.83;;;10.90;99.90;;;;;;6236102;22;20012;-62
2021/11/09 16:41:08;;;;;;;20.63;3.45;;;10.90;99.90;;;;;;6237932;22;20018;-62
2021/11/09 16:43:42;;;;;;;21.63;3.58;;;10.90;99.90;;;;;;6233870;22;20035;-62
2021/11/09 16:48:41;;;;;;;13.88;4.07;;;10.90;99.90;;;;;;6236553;22;20205;-61
2021/11/09 16:51:15;;;;;;;19.98;3.72;;;10.90;99.90;;;;;;6237807;22;20008;-62
2021/11/09 16:53:43;;;;;;;17.63;3.85;;;10.90;99.90;;;;;;6236621;22;20830;-62
2021/11/09 17:26:01;;;;;;;15.23;3.47;;;10.90;99.90;;;;;;6234361;22;20015;-63
2021/11/09 18:20:23;;;;;;;21.00;4.47;;;10.80;99.90;;;;;;6171271;22;20012;-62
2021/11/09 18:22:52;;;;;;;21.55;4.43;;;10.80;99.90;;;;;;6238295;22;20325;-61
2021/11/09 18:25:20;;;;;;;17.92;3.50;;;10.80;99.90;;;;;;6237280;22;20050;-62
2021/11/09 18:27:48;;;;;;;23.52;3.63;;;10.80;99.90;;;;;;6236206;22;20016;-61
2021/11/09 18:30:23;;;;;;;14.75;3.90;;;10.70;99.90;;;;;;6236738;22;20008;-61
2021/11/09 18:32:49;;;;;;;12.77;3.45;;;10.80;99.90;;;;;;6236535;22;20016;-62
2021/11/09 18:35:19;;;;;;;17.35;4.50;;;10.80;99.90;;;;;;6235237;22;20043;-62
2021/11/09 18:37:45;;;;;;;12.37;3.93;;;10.80;99.90;;;;;;6236714;22;20035;-62
2021/11/09 18:40:12;;;;;;;19.15;3.75;;;10.70;99.90;;;;;;6237432;22;20016;-62
2021/11/09 18:42:38;;;;;;;15.77;4.15;;;10.70;99.90;;;;;;6237623;22;20008;-62
2021/11/09 18:45:07;;;;;;;23.95;4.25;;;10.70;99.90;;;;;;6238791;22;20009;-61
2021/11/09 18:47:33;;;;;;;14.10;3.13;;;10.70;99.90;;;;;;6237488;22;20027;-62
2021/11/09 18:49:59;;;;;;;20.60;4.40;;;10.70;99.90;;;;;;6238967;22;20438;-61
2021/11/09 18:52:25;;;;;;;16.58;3.70;;;10.70;99.90;;;;;;6237089;22;20470;-62
2021/11/09 18:54:54;;;;;;;16.85;3.65;;;10.70;99.90;;;;;;6236444;23;20287;-61
2021/11/09 18:57:20;;;;;;;13.52;3.03;;;10.70;99.90;;;;;;6237881;22;20012;-63
2021/11/09 18:59:46;;;;;;;15.63;3.67;;;10.70;99.90;;;;;;6236869;22;20014;-62
2021/11/09 19:02:12;;;;;;;21.45;4.55;;;10.70;99.90;;;;;;6237675;22;20139;-63
2021/11/09 19:04:38;;;;;;;19.30;3.85;;;10.70;99.90;;;;;;6236613;22;20042;-63
2021/11/09 19:07:06;;;;;;;25.52;3.85;;;10.60;99.90;;;;;;6236684;22;20431;-61
2021/11/09 19:09:32;;;;;;;19.20;4.68;;;10.60;99.90;;;;;;6235967;22;20379;-63
2021/11/09 19:11:59;;;;;;;17.50;3.60;;;10.60;99.90;;;;;;6237263;22;20074;-62
2021/11/09 19:14:25;;;;;;;22.60;4.95;;;10.60;99.90;;;;;;6238141;22;20338;-63
2021/11/09 19:16:53;;;;;;;22.08;3.95;;;10.60;99.90;;;;;;6239981;22;20008;-62
2021/11/09 19:19:20;;;;;;;15.93;3.65;;;10.60;99.90;;;;;;6239754;22;20008;-61
2021/11/09 19:21:46;;;;;;;22.42;4.70;;;10.60;99.90;;;;;;6241219;22;20031;-62
2021/11/09 19:24:12;;;;;;;14.30;3.00;;;10.60;99.90;;;;;;6239831;22;20004;-63
2021/11/09 19:26:39;;;;;;;15.48;4.63;;;10.60;99.90;;;;;;6240015;22;20070;-63
2021/11/09 19:29:05;;;;;;;15.45;3.80;;;10.60;99.90;;;;;;6240615;22;20004;-62
2021/11/09 19:31:30;;;;;;;27.67;3.95;;;10.60;99.90;;;;;;6239162;22;20023;-63
2021/11/09 19:33:56;;;;;;;20.95;3.45;;;10.60;99.90;;;;;;6239310;22;20000;-63
2021/11/09 19:36:22;;;;;;;16.52;4.18;;;10.60;99.90;;;;;;6239115;22;20000;-62
2021/11/09 19:38:48;;;;;;;15.38;3.40;;;10.60;99.90;;;;;;6239576;22;20559;-61
2021/11/09 19:41:14;;;;;;;18.92;3.35;;;10.50;99.90;;;;;;6240156;22;20008;-62
2021/11/09 19:43:42;;;;;;;16.58;3.35;;;10.50;99.90;;;;;;6239260;22;20010;-62
2021/11/09 19:46:08;;;;;;;10.40;3.20;;;10.60;99.90;;;;;;6240215;22;20107;-61
2021/11/09 19:48:37;;;;;;;18.02;3.42;;;10.60;99.90;;;;;;6237256;22;20035;-62
2021/11/09 19:51:04;;;;;;;11.25;2.95;;;10.60;99.90;;;;;;6240354;22;20077;-61
2021/11/09 19:53:31;;;;;;;14.25;2.80;;;10.60;99.90;;;;;;6237226;22;20069;-61
2021/11/09 19:55:58;;;;;;;15.57;3.10;;;10.60;99.90;;;;;;6240087;22;20123;-62
2021/11/09 19:58:28;;;;;;;20.63;3.53;;;10.50;99.90;;;;;;6239170;22;20011;-62
2021/11/09 20:01:00;;;;;;;15.23;3.60;;;10.50;99.90;;;;;;6240814;22;20016;-62
2021/11/09 20:03:28;;;;;;;24.58;3.92;;;10.50;99.90;;;;;;6238791;22;20024;-63
2021/11/09 20:05:55;;;;;;;18.23;3.90;;;10.50;99.90;;;;;;6240674;22;20015;-62
2021/11/09 20:08:22;;;;;;;18.45;3.88;;;10.50;99.90;;;;;;6237615;22;20015;-63
2021/11/09 20:10:49;;;;;;;26.08;4.15;;;10.50;99.90;;;;;;6240160;22;20004;-61
2021/11/09 20:13:19;;;;;;;20.30;2.95;;;10.50;99.90;;;;;;6239156;22;20004;-66
2021/11/09 20:15:48;;;;;;;18.57;3.97;;;10.60;99.90;;;;;;6240154;22;20503;-62
2021/11/09 20:18:18;;;;;;;14.38;4.03;;;10.50;99.90;;;;;;6239540;22;20235;-62
2021/11/09 20:20:44;;;;;;;13.90;4.00;;;10.50;99.90;;;;;;6237807;22;20026;-61
2021/11/09 20:23:10;;;;;;;15.48;3.65;;;10.50;99.90;;;;;;6239874;22;20004;-62
2021/11/09 20:25:36;;;;;;;11.95;2.92;;;10.50;99.90;;;;;;6237817;22;20019;-63
2021/11/09 20:28:02;;;;;;;15.70;3.33;;;10.50;99.90;;;;;;6237846;22;20000;-61
2021/11/09 20:30:31;;;;;;;13.65;3.47;;;10.50;99.90;;;;;;6237671;22;20016;-61
2021/11/09 20:32:57;;;;;;;11.45;2.90;;;10.50;99.90;;;;;;6240560;22;20014;-62
2021/11/09 20:35:23;;;;;;;11.15;3.33;;;10.50;99.90;;;;;;6240253;22;20007;-62
2021/11/09 20:37:51;;;;;;;19.98;3.47;;;10.50;99.90;;;;;;6240884;22;20016;-62
2021/11/09 20:40:21;;;;;;;14.50;2.70;;;10.50;99.90;;;;;;6237541;22;20051;-62
2021/11/09 20:42:47;;;;;;;15.45;3.30;;;10.50;99.90;;;;;;6238523;23;20007;-62
2021/11/09 20:45:16;;;;;;;15.27;2.92;;;10.40;99.90;;;;;;6240345;22;20039;-62
2021/11/09 20:47:44;;;;;;;16.60;3.78;;;10.40;99.90;;;;;;6240111;22;20012;-61
2021/11/09 20:50:12;;;;;;;12.90;2.97;;;10.40;99.90;;;;;;6241152;22;20008;-62
2021/11/09 20:52:38;;;;;;;16.75;3.75;;;10.40;99.90;;;;;;6239491;22;20119;-62
2021/11/09 20:55:05;;;;;;;13.55;3.17;;;10.40;99.90;;;;;;6240988;22;20380;-62
2021/11/09 20:57:31;;;;;;;11.82;2.90;;;10.40;99.90;;;;;;6239163;22;20008;-61
2021/11/09 20:59:56;;;;;;;21.40;3.53;;;10.40;99.90;;;;;;6240548;22;20312;-61
2021/11/09 21:02:24;;;;;;;14.50;4.05;;;10.40;99.90;;;;;;6239693;22;20359;-61
2021/11/09 21:04:52;;;;;;;9.57;3.05;;;10.40;99.90;;;;;;6240900;22;20035;-62
2021/11/09 21:07:17;;;;;;;21.48;3.83;;;10.40;99.90;;;;;;6239537;22;20012;-62
2021/11/09 21:09:43;;;;;;;11.90;2.80;;;10.50;99.90;;;;;;6240493;22;20319;-62
2021/11/09 21:12:13;;;;;;;13.77;3.08;;;10.40;99.90;;;;;;6240342;22;20012;-62
2021/11/09 21:19:49;;;;;;;17.65;4.10;;;10.50;99.90;;;;;;6239628;22;20051;-62
2021/11/09 21:22:15;;;;;;;15.25;3.38;;;10.50;99.90;;;;;;6238487;22;20490;-61
2021/11/09 21:24:41;;;;;;;11.10;3.40;;;10.50;99.90;;;;;;6239785;22;20005;-62
2021/11/09 21:27:06;;;;;;;20.48;5.00;;;10.50;99.90;;;;;;6237254;23;20091;-62
2021/11/09 21:30:03;;;;;;;13.73;3.35;;;10.50;99.90;;;;;;6238451;22;20161;-62
2021/11/09 21:35:10;;;;;;;12.25;4.00;;;10.50;99.90;;;;;;6240609;22;20091;-61
2021/11/09 21:37:37;;;;;;;14.75;3.72;;;10.50;99.90;;;;;;6239108;22;20016;-62
2021/11/09 21:40:05;;;;;;;18.48;3.30;;;10.50;99.90;;;;;;6239709;22;20419;-62
2021/11/09 21:42:31;;;;;;;14.63;4.07;;;10.50;99.90;;;;;;6238966;22;20008;-62
2021/11/09 21:44:56;;;;;;;13.50;3.33;;;10.50;99.90;;;;;;6240169;22;20022;-62
2021/11/09 21:47:22;;;;;;;18.95;3.40;;;10.40;99.90;;;;;;6239857;22;20012;-62
2021/11/09 21:49:47;;;;;;;16.05;3.45;;;10.40;99.90;;;;;;6240746;22;20070;-62
2021/11/09 21:52:13;;;;;;;15.45;3.53;;;10.40;99.90;;;;;;6240193;22;20464;-62
2021/11/09 21:54:39;;;;;;;15.55;3.33;;;10.40;99.90;;;;;;6239930;22;20004;-62
2021/11/09 21:57:05;;;;;;;11.23;3.35;;;10.50;99.90;;;;;;6240350;22;20036;-62
2021/11/09 21:59:30;;;;;;;14.68;3.15;;;10.50;99.90;;;;;;6239405;22;20471;-62
2021/11/09 22:01:56;;;;;;;15.07;2.88;;;10.40;99.90;;;;;;6240335;22;20007;-63
2021/11/09 22:04:21;;;;;;;17.13;4.20;;;10.40;99.90;;;;;;6238682;22;20008;-64
2021/11/09 22:06:47;;;;;;;17.25;4.63;;;10.40;99.90;;;;;;6240095;22;20088;-62
2021/11/09 22:09:13;;;;;;;22.25;4.72;;;10.50;99.90;;;;;;6239984;22;20008;-63